Terminal Aerodrome Forecast
Issued by NWS

Home | Current Version | Previous Version | Text Only | Print | Product List | Glossary On
Versions: 1 2 3 4 5 6 7 8 9 10 11 12 13 14 15 16 17 18 19 20 21 22 23 24 25 26 27 28
655
FTUS41 KPBZ 201120
TAFZZV
TAF
KZZV 201120Z 2012/2112 12006KT 4SM -RA OVC015
     FM201400 15007KT 2SM -RA OVC008
     FM202200 21007KT P6SM SCT008 OVC010=

USA.gov is the U.S. government's official web portal to all federal, state and local government web resources and services.